Time;durP1;ratioP1;P1;durP2;ratioP2;P2;SDS_P1;SDS_P2;PMS_P1;PMS_P2;Temp;Humidity;BMP_temperature;BMP_pressure;BME280_temperature;BME280_humidity;BME280_pressure;Samples;Min_cycle;Max_cycle;Signal;HPM_P1;HPM_P2
2022/04/24 00:02:24;;;;;;;6.20;1.37;;;20.30;73.70;;;;;;5067877;28;20180;-74
2022/04/24 00:04:51;;;;;;;3.33;1.30;;;20.30;73.80;;;;;;5056678;28;20182;-75
2022/04/24 00:07:19;;;;;;;2.90;1.23;;;20.30;74.10;;;;;;5052099;28;20266;-75
2022/04/24 00:09:46;;;;;;;4.80;1.53;;;20.50;73.30;;;;;;5052010;28;20176;-74
2022/04/24 00:12:16;;;;;;;4.67;1.50;;;20.70;73.10;;;;;;5055713;28;20258;-75
2022/04/24 00:14:45;;;;;;;2.60;1.20;;;20.70;72.50;;;;;;5067251;28;20179;-74
2022/04/24 00:17:15;;;;;;;5.93;1.10;;;20.90;71.80;;;;;;5055662;28;20603;-74
2022/04/24 00:19:45;;;;;;;1.73;1.13;;;21.00;70.70;;;;;;5040081;28;20188;-73
2022/04/24 00:22:13;;;;;;;4.30;1.57;;;21.20;69.30;;;;;;5054786;28;20717;-74
2022/04/24 00:24:40;;;;;;;4.77;1.37;;;21.50;68.90;;;;;;5049245;28;20604;-74
2022/04/24 00:27:08;;;;;;;5.17;1.70;;;21.60;66.10;;;;;;5035538;28;20268;-73
2022/04/24 00:29:36;;;;;;;2.67;1.13;;;21.50;66.80;;;;;;5044021;28;20296;-72
2022/04/24 00:32:04;;;;;;;4.47;1.00;;;21.80;66.60;;;;;;5049270;28;20176;-72
2022/04/24 00:34:32;;;;;;;2.63;0.97;;;22.10;64.70;;;;;;5055141;28;20183;-72
2022/04/24 00:37:00;;;;;;;2.53;0.93;;;22.30;61.60;;;;;;5047838;28;20176;-73
2022/04/24 00:39:28;;;;;;;1.37;0.80;;;22.40;60.30;;;;;;5054654;28;20222;-71
2022/04/24 00:41:55;;;;;;;3.90;0.90;;;22.70;59.70;;;;;;5061943;28;20219;-71
2022/04/24 00:44:23;;;;;;;2.17;0.97;;;22.80;58.70;;;;;;5070599;28;20179;-73
2022/04/24 00:46:56;;;;;;;2.37;1.00;;;22.80;56.50;;;;;;5052531;28;20634;-73
2022/04/24 00:49:24;;;;;;;3.80;0.80;;;22.80;57.90;;;;;;5055535;28;20672;-73
2022/04/24 00:51:52;;;;;;;3.50;0.80;;;23.00;56.80;;;;;;5056070;28;20211;-73
2022/04/24 00:54:19;;;;;;;4.13;0.87;;;23.00;56.90;;;;;;5052713;28;20195;-74
2022/04/24 00:56:47;;;;;;;1.77;0.80;;;22.70;58.90;;;;;;5035597;28;20206;-74
2022/04/24 00:59:16;;;;;;;4.60;1.40;;;22.30;59.70;;;;;;5063849;28;20191;-73
2022/04/24 01:01:43;;;;;;;2.93;1.07;;;22.40;59.60;;;;;;5055976;28;20306;-74
2022/04/24 01:04:12;;;;;;;5.50;0.80;;;22.50;57.90;;;;;;5055084;28;20199;-74
2022/04/24 01:06:42;;;;;;;3.63;0.80;;;22.70;56.50;;;;;;5054894;28;20180;-75
2022/04/24 01:09:19;;;;;;;2.10;0.90;;;22.90;55.10;;;;;;5043455;28;20180;-75
2022/04/24 01:11:49;;;;;;;1.60;0.60;;;23.10;55.00;;;;;;5052144;28;20186;-73
2022/04/24 01:14:17;;;;;;;0.97;0.60;;;23.30;51.80;;;;;;5054478;28;20176;-75
2022/04/24 01:16:46;;;;;;;2.50;0.50;;;23.60;51.50;;;;;;5054446;28;20634;-75
2022/04/24 01:19:14;;;;;;;3.30;0.60;;;23.80;49.40;;;;;;5053073;28;20187;-76
2022/04/24 01:21:46;;;;;;;2.27;0.53;;;23.80;50.60;;;;;;5053331;28;20220;-76
2022/04/24 01:24:16;;;;;;;2.60;0.63;;;23.90;48.80;;;;;;5054529;28;20179;-77
2022/04/24 01:26:44;;;;;;;1.90;0.50;;;24.00;49.00;;;;;;5054235;28;20267;-76
2022/04/24 01:29:11;;;;;;;2.07;0.70;;;23.90;48.10;;;;;;5053502;28;20229;-76
2022/04/24 01:31:39;;;;;;;2.20;0.40;;;23.90;48.70;;;;;;5057504;28;20186;-77
2022/04/24 01:34:07;;;;;;;1.77;0.80;;;24.20;49.00;;;;;;5054478;28;20255;-75
2022/04/24 01:36:34;;;;;;;1.57;0.80;;;24.20;47.30;;;;;;5054098;28;20172;-75
2022/04/24 01:39:02;;;;;;;1.53;0.57;;;24.30;49.30;;;;;;5054050;28;20264;-76
2022/04/24 01:41:30;;;;;;;1.80;0.50;;;24.40;48.10;;;;;;5051774;28;20254;-76
2022/04/24 01:43:58;;;;;;;3.70;0.70;;;24.60;48.30;;;;;;5047682;28;20200;-75
2022/04/24 01:46:25;;;;;;;1.27;0.67;;;24.70;48.60;;;;;;5033872;28;20183;-76
2022/04/24 01:48:52;;;;;;;0.97;0.47;;;24.70;48.70;;;;;;5034211;28;20177;-75
2022/04/24 01:51:20;;;;;;;3.07;0.60;;;24.60;47.50;;;;;;5034440;28;20176;-77
2022/04/24 01:53:47;;;;;;;3.93;0.60;;;24.70;47.70;;;;;;5050785;28;20249;-76
2022/04/24 01:56:14;;;;;;;4.80;0.70;;;25.20;47.90;;;;;;5053604;28;20200;-74
2022/04/24 01:58:42;;;;;;;2.23;0.57;;;25.20;47.20;;;;;;5034905;28;20238;-75
2022/04/24 02:01:09;;;;;;;2.00;0.73;;;24.80;47.80;;;;;;5033804;28;20211;-74
2022/04/24 02:03:37;;;;;;;1.40;0.47;;;25.10;46.20;;;;;;5034000;28;20169;-77
2022/04/24 02:06:05;;;;;;;1.97;1.57;;;25.30;44.30;;;;;;5033626;28;20180;-72
2022/04/24 02:08:37;;;;;;;2.03;1.40;;;25.30;44.80;;;;;;5041944;28;20176;-76
2022/04/24 02:11:06;;;;;;;2.87;0.77;;;25.10;44.60;;;;;;5053652;28;20183;-75
2022/04/24 02:13:34;;;;;;;0.87;0.60;;;25.10;45.90;;;;;;5052294;28;20168;-77
2022/04/24 02:16:02;;;;;;;0.87;0.50;;;25.10;46.20;;;;;;5033372;28;20184;-76
2022/04/24 02:18:29;;;;;;;1.43;0.60;;;24.70;47.50;;;;;;5033661;28;20195;-74
2022/04/24 02:20:56;;;;;;;1.23;0.60;;;25.00;47.50;;;;;;5048863;28;20738;-74
2022/04/24 02:23:24;;;;;;;1.80;0.60;;;25.20;46.80;;;;;;5053379;28;20187;-74
2022/04/24 02:25:54;;;;;;;2.53;0.83;;;25.70;45.30;;;;;;5047490;28;20630;-78
2022/04/24 02:28:22;;;;;;;1.53;1.17;;;26.10;44.30;;;;;;5051514;28;20263;-77
2022/04/24 02:30:50;;;;;;;2.77;1.93;;;26.00;44.00;;;;;;5048113;28;20191;-76
2022/04/24 02:33:17;;;;;;;2.47;0.60;;;26.20;44.40;;;;;;5031633;28;20184;-75
2022/04/24 02:35:44;;;;;;;2.27;0.70;;;25.80;44.20;;;;;;5033285;28;20222;-79
2022/04/24 02:38:12;;;;;;;2.20;0.80;;;26.30;44.30;;;;;;5033246;28;20651;-77
2022/04/24 02:40:40;;;;;;;5.17;1.40;;;25.90;44.30;;;;;;5036828;28;20308;-75
2022/04/24 02:43:08;;;;;;;3.73;1.40;;;25.80;45.00;;;;;;5052597;28;20288;-75
2022/04/24 02:45:35;;;;;;;2.47;0.67;;;26.40;44.40;;;;;;5052784;28;20577;-75
2022/04/24 02:48:04;;;;;;;4.43;0.63;;;26.30;43.80;;;;;;5052483;28;20603;-75
2022/04/24 02:50:31;;;;;;;1.27;0.80;;;25.80;46.10;;;;;;5053091;28;20277;-76
2022/04/24 02:52:58;;;;;;;1.97;0.87;;;26.30;45.30;;;;;;5052861;28;20180;-89
2022/04/24 02:55:26;;;;;;;1.23;0.60;;;26.50;43.90;;;;;;5049852;28;20911;-74
2022/04/24 02:57:55;;;;;;;1.53;0.70;;;26.80;44.40;;;;;;5046991;28;20187;-75
2022/04/24 03:00:24;;;;;;;3.90;0.80;;;26.60;44.80;;;;;;5072501;28;20221;-75
2022/04/24 03:02:54;;;;;;;3.57;1.97;;;26.60;45.70;;;;;;5071364;28;20561;-79
2022/04/24 03:05:23;;;;;;;3.90;1.10;;;26.30;45.80;;;;;;5049289;28;20191;-73
2022/04/24 03:07:50;;;;;;;5.33;3.23;;;25.30;47.70;;;;;;5052376;28;20200;-75
2022/04/24 03:10:19;;;;;;;4.80;3.17;;;24.80;49.40;;;;;;5051127;28;20180;-75
2022/04/24 03:12:47;;;;;;;2.53;1.00;;;25.30;47.70;;;;;;5051316;28;20233;-77
2022/04/24 03:15:15;;;;;;;1.97;0.60;;;25.80;46.60;;;;;;5052318;28;20188;-75
2022/04/24 03:17:43;;;;;;;1.37;0.60;;;26.50;44.80;;;;;;5040535;28;20559;-74
2022/04/24 03:20:13;;;;;;;4.73;0.70;;;26.30;44.40;;;;;;5049093;28;20211;-84
2022/04/24 03:22:40;;;;;;;3.70;0.50;;;26.20;44.90;;;;;;5053251;28;20195;-75
2022/04/24 03:25:10;;;;;;;1.27;0.60;;;25.60;45.60;;;;;;5051403;28;20246;-78
2022/04/24 03:27:39;;;;;;;3.60;0.63;;;25.00;47.80;;;;;;5055113;28;20196;-72
2022/04/24 03:30:12;;;;;;;3.17;0.70;;;24.30;50.30;;;;;;5050990;28;20192;-76
2022/04/24 03:32:40;;;;;;;3.17;1.53;;;23.80;51.90;;;;;;5052670;28;20172;-77
2022/04/24 03:35:09;;;;;;;3.10;0.90;;;24.30;50.80;;;;;;5052442;28;20179;-78
2022/04/24 03:37:39;;;;;;;2.50;1.00;;;25.60;47.10;;;;;;5050249;28;20708;-77
2022/04/24 03:40:08;;;;;;;2.27;0.70;;;26.30;44.00;;;;;;5052023;28;20283;-74
2022/04/24 03:42:36;;;;;;;4.30;0.73;;;25.70;45.10;;;;;;5051072;28;20227;-76
2022/04/24 03:45:08;;;;;;;5.03;2.90;;;25.40;46.70;;;;;;5048539;28;20180;-76
2022/04/24 03:47:36;;;;;;;1.57;1.00;;;24.90;47.70;;;;;;5049437;28;20187;-73
2022/04/24 03:50:04;;;;;;;5.23;1.43;;;24.60;47.40;;;;;;5071065;28;20187;-76
2022/04/24 03:52:31;;;;;;;2.23;1.17;;;25.30;47.10;;;;;;5050840;28;20188;-76
2022/04/24 03:54:59;;;;;;;2.07;0.80;;;25.90;45.80;;;;;;5053526;28;20745;-78
2022/04/24 03:57:26;;;;;;;4.20;1.00;;;25.80;45.40;;;;;;5056121;28;20180;-76
2022/04/24 03:59:54;;;;;;;2.20;1.47;;;26.60;43.10;;;;;;5062982;28;20190;-77
2022/04/24 04:02:21;;;;;;;2.43;1.20;;;27.90;40.30;;;;;;5061939;28;20185;-74
2022/04/24 04:04:48;;;;;;;0.87;0.43;;;27.30;41.00;;;;;;5060142;28;20175;-74
2022/04/24 04:07:16;;;;;;;2.37;0.60;;;26.90;41.50;;;;;;5061258;28;20199;-71
2022/04/24 04:09:43;;;;;;;2.20;0.80;;;26.30;42.30;;;;;;5055635;28;20525;-74
2022/04/24 04:12:11;;;;;;;1.77;0.70;;;26.60;41.40;;;;;;5074631;28;20191;-76
2022/04/24 04:14:38;;;;;;;1.90;0.60;;;26.10;43.10;;;;;;5056091;28;20183;-75
2022/04/24 04:17:06;;;;;;;2.57;0.50;;;27.00;41.40;;;;;;5053823;28;20199;-78
2022/04/24 04:19:34;;;;;;;1.07;0.63;;;26.80;41.50;;;;;;5055166;28;20181;-76
2022/04/24 04:22:02;;;;;;;2.03;0.63;;;26.90;41.40;;;;;;5054204;28;20567;-75
2022/04/24 04:24:29;;;;;;;1.87;0.53;;;27.20;40.70;;;;;;5056292;28;20652;-75
2022/04/24 04:26:57;;;;;;;0.77;0.53;;;26.70;41.10;;;;;;5053559;28;20175;-74
2022/04/24 04:29:24;;;;;;;2.60;0.50;;;26.40;41.50;;;;;;5055790;28;20202;-76
2022/04/24 04:31:51;;;;;;;2.40;0.50;;;26.80;41.50;;;;;;5055331;28;20172;-75
2022/04/24 04:34:19;;;;;;;2.80;0.60;;;26.70;40.60;;;;;;5055650;28;20207;-76
2022/04/24 04:36:46;;;;;;;0.80;0.50;;;26.40;41.20;;;;;;5055751;28;20175;-74
2022/04/24 04:39:13;;;;;;;0.40;0.40;;;26.70;41.20;;;;;;5068489;28;20277;-77
2022/04/24 04:41:41;;;;;;;0.87;0.40;;;26.80;41.10;;;;;;5054059;28;20259;-77
2022/04/24 04:44:08;;;;;;;3.73;0.90;;;26.60;41.00;;;;;;5054337;28;20263;-72
2022/04/24 04:46:35;;;;;;;1.53;0.50;;;26.90;40.10;;;;;;5055126;28;20547;-77
2022/04/24 04:49:03;;;;;;;1.93;0.40;;;27.30;38.60;;;;;;5057819;28;20192;-76
2022/04/24 04:51:31;;;;;;;0.40;0.37;;;26.70;40.00;;;;;;5059354;28;20180;-75
2022/04/24 04:53:58;;;;;;;0.93;0.47;;;26.80;39.60;;;;;;5060878;28;20179;-75
2022/04/24 04:56:25;;;;;;;1.63;0.60;;;27.20;39.80;;;;;;5056203;28;20194;-76
2022/04/24 04:58:53;;;;;;;0.70;0.40;;;26.50;40.40;;;;;;5050442;28;20658;-77
2022/04/24 05:01:20;;;;;;;3.30;0.40;;;27.10;38.80;;;;;;5066684;28;20226;-75
2022/04/24 05:03:47;;;;;;;1.97;0.60;;;26.70;39.20;;;;;;5073470;28;20200;-74
2022/04/24 05:06:16;;;;;;;0.80;0.50;;;27.30;39.30;;;;;;5075109;28;20182;-75
2022/04/24 05:08:43;;;;;;;0.43;0.40;;;26.90;39.40;;;;;;5062854;28;20629;-76
2022/04/24 05:11:10;;;;;;;3.23;0.70;;;26.50;39.50;;;;;;5062776;28;20256;-78
2022/04/24 05:13:38;;;;;;;0.90;0.40;;;26.40;40.80;;;;;;5055223;28;20333;-76
2022/04/24 05:16:06;;;;;;;5.37;0.70;;;27.30;38.00;;;;;;5070697;28;20180;-76
2022/04/24 05:18:33;;;;;;;0.73;0.40;;;27.30;37.40;;;;;;5071569;28;20183;-73
2022/04/24 05:21:02;;;;;;;2.00;0.50;;;26.90;38.70;;;;;;5064516;28;20222;-76
2022/04/24 05:23:29;;;;;;;1.13;0.40;;;27.20;39.10;;;;;;5061353;28;20195;-75
2022/04/24 05:25:57;;;;;;;1.90;0.40;;;28.40;37.00;;;;;;5071972;28;20192;-76
2022/04/24 05:28:24;;;;;;;1.10;0.60;;;28.10;36.30;;;;;;5053740;28;20552;-78
2022/04/24 05:30:52;;;;;;;3.50;0.53;;;27.80;37.20;;;;;;5054101;28;20574;-78
2022/04/24 05:33:19;;;;;;;2.03;0.50;;;27.30;37.90;;;;;;5060993;28;20254;-76
2022/04/24 05:35:49;;;;;;;0.67;0.40;;;26.80;39.20;;;;;;5059231;28;20740;-76
2022/04/24 05:38:16;;;;;;;0.70;0.40;;;26.70;38.90;;;;;;5044747;28;20635;-78
2022/04/24 05:40:43;;;;;;;1.27;0.50;;;26.70;39.40;;;;;;5050884;28;20237;-76
2022/04/24 05:43:11;;;;;;;1.47;0.47;;;27.20;38.90;;;;;;5054251;28;20687;-77
2022/04/24 05:45:38;;;;;;;0.80;0.40;;;27.10;38.50;;;;;;5054479;28;20226;-74
2022/04/24 05:48:06;;;;;;;1.17;0.60;;;27.90;38.50;;;;;;5054355;28;20192;-77
2022/04/24 05:50:33;;;;;;;2.97;0.60;;;27.50;38.40;;;;;;5045611;28;20529;-79
2022/04/24 05:53:02;;;;;;;0.80;0.33;;;28.00;37.30;;;;;;5054195;28;20179;-74
2022/04/24 05:55:29;;;;;;;0.67;0.40;;;27.90;37.10;;;;;;5053255;28;20219;-78
2022/04/24 05:57:57;;;;;;;0.50;0.43;;;28.10;36.60;;;;;;5052894;28;20176;-79
2022/04/24 06:00:24;;;;;;;7.53;6.67;;;26.90;39.60;;;;;;5053252;28;20211;-77
2022/04/24 06:02:52;;;;;;;1.53;0.80;;;25.80;42.30;;;;;;5040459;28;20185;-76
2022/04/24 06:05:20;;;;;;;2.03;0.80;;;25.10;43.90;;;;;;5048794;28;20184;-78
2022/04/24 06:07:48;;;;;;;2.10;0.60;;;24.50;45.00;;;;;;5051138;28;20285;-78
2022/04/24 06:10:15;;;;;;;2.27;0.80;;;25.60;42.90;;;;;;5056652;28;20183;-79
2022/04/24 06:12:50;;;;;;;2.90;0.63;;;26.60;40.10;;;;;;5064344;28;20593;-78
2022/04/24 06:15:21;;;;;;;2.60;0.40;;;26.70;40.40;;;;;;5041063;28;20168;-78
2022/04/24 06:17:53;;;;;;;2.77;0.77;;;27.20;38.90;;;;;;5053417;28;20168;-75
2022/04/24 06:20:23;;;;;;;1.10;0.50;;;27.10;39.50;;;;;;5036678;28;20208;-78
2022/04/24 06:22:55;;;;;;;0.60;0.50;;;25.90;41.90;;;;;;5047836;28;20213;-77
2022/04/24 06:25:25;;;;;;;1.17;0.57;;;24.80;44.20;;;;;;5053768;28;20164;-78
2022/04/24 06:27:53;;;;;;;2.43;0.90;;;24.50;46.50;;;;;;5053461;28;20180;-78
2022/04/24 06:30:24;;;;;;;3.40;0.87;;;24.30;51.20;;;;;;5052834;28;20179;-72
2022/04/24 06:32:51;;;;;;;2.97;0.73;;;23.80;54.90;;;;;;5053386;28;20183;-78
2022/04/24 06:35:19;;;;;;;3.60;0.73;;;23.50;56.50;;;;;;5052702;28;20172;-77
2022/04/24 06:37:57;;;;;;;7.67;1.20;;;23.30;58.00;;;;;;5050836;28;20439;-86
2022/04/24 06:40:26;;;;;;;5.53;1.00;;;23.10;59.00;;;;;;5044577;28;20312;-78
2022/04/24 06:43:04;;;;;;;8.17;5.63;;;22.90;60.10;;;;;;5059937;28;20224;-80
2022/04/24 06:45:33;;;;;;;5.50;4.53;;;22.60;60.70;;;;;;5050532;28;20184;-77
2022/04/24 06:48:05;;;;;;;3.47;2.43;;;22.30;61.90;;;;;;5059764;28;20195;-76
2022/04/24 06:50:34;;;;;;;5.17;1.20;;;22.10;62.40;;;;;;5052680;28;20181;-76
2022/04/24 06:53:08;;;;;;;1.70;0.70;;;22.00;62.70;;;;;;5053099;28;20616;-79
2022/04/24 06:55:37;;;;;;;1.80;0.70;;;21.90;62.90;;;;;;5055307;28;20681;-80
2022/04/24 06:58:07;;;;;;;6.47;0.90;;;21.60;64.50;;;;;;5054818;28;20244;-79
2022/04/24 07:00:39;;;;;;;3.37;1.00;;;21.30;66.00;;;;;;5052853;28;20215;-80
2022/04/24 07:03:26;;;;;;;2.67;1.07;;;21.20;67.10;;;;;;5065617;28;20291;-73
2022/04/24 07:05:54;;;;;;;3.87;0.90;;;21.00;68.30;;;;;;5060745;28;20258;-76
2022/04/24 07:08:24;;;;;;;6.77;1.03;;;20.80;69.40;;;;;;5061114;28;20203;-75
2022/04/24 07:10:55;;;;;;;3.43;1.40;;;20.80;69.90;;;;;;5070347;28;20206;-76
2022/04/24 07:13:22;;;;;;;4.47;1.13;;;20.70;69.90;;;;;;5058397;28;20246;-72
2022/04/24 07:15:51;;;;;;;3.27;1.10;;;20.60;69.70;;;;;;5050185;28;20191;-78
2022/04/24 07:18:19;;;;;;;5.63;1.00;;;20.60;69.80;;;;;;5052175;28;20194;-76
2022/04/24 07:20:46;;;;;;;2.63;0.80;;;20.50;69.90;;;;;;5054926;28;20207;-76
2022/04/24 07:23:13;;;;;;;2.90;0.90;;;20.40;70.50;;;;;;5048038;28;20197;-77
2022/04/24 07:25:46;;;;;;;2.77;0.93;;;20.40;70.60;;;;;;5054811;28;20279;-77
2022/04/24 07:28:15;;;;;;;5.53;4.17;;;20.40;70.50;;;;;;5050565;28;20215;-76
2022/04/24 07:30:43;;;;;;;4.10;3.60;;;20.30;70.80;;;;;;5051603;28;20202;-77
2022/04/24 07:33:11;;;;;;;3.77;2.37;;;20.30;71.20;;;;;;5052195;28;20190;-76
2022/04/24 07:35:39;;;;;;;3.30;1.23;;;20.40;71.00;;;;;;5068607;28;20208;-75
2022/04/24 07:38:07;;;;;;;3.70;1.40;;;20.40;70.60;;;;;;5034220;28;20185;-76
2022/04/24 07:40:36;;;;;;;4.07;1.27;;;20.40;70.60;;;;;;5068611;28;20214;-76
2022/04/24 07:43:06;;;;;;;3.90;1.20;;;20.50;70.00;;;;;;5024686;28;1001414;-75
2022/04/24 07:45:38;;;;;;;5.73;1.53;;;20.40;70.10;;;;;;5053488;28;20542;-75
2022/04/24 07:48:07;;;;;;;5.07;1.57;;;20.50;69.90;;;;;;5051285;28;20176;-76
2022/04/24 07:50:52;;;;;;;6.33;1.20;;;20.50;69.50;;;;;;5052131;28;20184;-74
2022/04/24 07:53:21;;;;;;;6.17;1.40;;;20.30;70.10;;;;;;5053954;28;20275;-76
2022/04/24 07:55:49;;;;;;;1.67;1.10;;;20.30;72.80;;;;;;5050582;28;20186;-74
2022/04/24 07:58:17;;;;;;;3.57;1.40;;;20.10;73.50;;;;;;5052035;28;20191;-74
2022/04/24 08:00:45;;;;;;;8.13;1.63;;;19.90;74.40;;;;;;5051991;28;20207;-75
2022/04/24 08:03:15;;;;;;;4.83;1.60;;;20.00;74.60;;;;;;5051647;28;20168;-75
2022/04/24 08:05:47;;;;;;;4.23;1.67;;;20.00;74.50;;;;;;5052068;28;20175;-75
2022/04/24 08:08:19;;;;;;;4.03;1.43;;;20.00;74.00;;;;;;5050572;28;20182;-75
2022/04/24 08:10:49;;;;;;;4.13;1.20;;;19.90;73.50;;;;;;5051512;28;20581;-72
2022/04/24 08:13:18;;;;;;;2.93;1.40;;;19.90;73.70;;;;;;5071891;28;20252;-74
2022/04/24 08:15:46;;;;;;;3.67;1.50;;;19.90;73.40;;;;;;5071769;28;20171;-74
2022/04/24 08:18:14;;;;;;;2.93;1.50;;;19.90;72.90;;;;;;5065710;28;20595;-75
2022/04/24 08:20:44;;;;;;;7.07;1.30;;;19.90;72.80;;;;;;5064178;28;20696;-74
2022/04/24 08:23:15;;;;;;;3.00;1.20;;;19.90;72.60;;;;;;5052334;28;20184;-74
2022/04/24 08:25:43;;;;;;;6.80;1.40;;;19.90;72.70;;;;;;5063511;28;20257;-75
2022/04/24 08:28:12;;;;;;;5.23;1.30;;;20.00;72.30;;;;;;5046749;28;20187;-74
2022/04/24 08:30:42;;;;;;;6.03;2.60;;;19.80;72.40;;;;;;5064909;28;20276;-74
2022/04/24 08:33:10;;;;;;;3.70;1.90;;;19.90;71.40;;;;;;5073081;28;20179;-75
2022/04/24 08:35:38;;;;;;;4.20;1.87;;;19.90;71.50;;;;;;5066025;28;20633;-74
2022/04/24 08:38:05;;;;;;;4.13;2.10;;;19.90;71.80;;;;;;5061371;28;20176;-75
2022/04/24 08:40:33;;;;;;;4.53;1.70;;;19.80;72.00;;;;;;5057036;28;20286;-74
2022/04/24 08:43:01;;;;;;;5.63;2.03;;;19.80;72.30;;;;;;5065659;28;20231;-74
2022/04/24 08:45:31;;;;;;;3.50;1.90;;;19.80;72.20;;;;;;5075222;28;20206;-74
2022/04/24 08:47:59;;;;;;;4.73;2.10;;;19.70;72.50;;;;;;5073863;28;20183;-75
2022/04/24 08:50:31;;;;;;;5.57;2.17;;;19.70;72.40;;;;;;5062260;28;20218;-74
2022/04/24 08:52:59;;;;;;;3.20;1.67;;;19.70;72.60;;;;;;5056587;28;20187;-74
2022/04/24 08:55:33;;;;;;;3.20;1.60;;;19.60;72.50;;;;;;5070939;28;20677;-75
2022/04/24 08:58:00;;;;;;;6.23;1.73;;;19.60;72.40;;;;;;5067118;28;20217;-74
2022/04/24 09:00:29;;;;;;;2.30;1.60;;;19.60;72.50;;;;;;5046406;28;20219;-75
2022/04/24 09:02:57;;;;;;;4.00;1.90;;;19.60;72.40;;;;;;5057067;28;20275;-72
2022/04/24 09:05:25;;;;;;;2.87;1.63;;;19.40;72.60;;;;;;5054243;28;20175;-75
2022/04/24 09:08:12;;;;;;;9.97;3.80;;;19.30;73.30;;;;;;5060479;28;20540;-73
2022/04/24 09:11:13;;;;;;;5.60;2.73;;;19.20;73.50;;;;;;5054703;28;20172;-76
2022/04/24 09:16:47;;;;;;;2.50;1.10;;;19.20;74.30;;;;;;5070710;28;20190;-75
2022/04/24 09:19:22;;;;;;;4.33;1.37;;;19.10;75.90;;;;;;5074511;28;20191;-75
2022/04/24 09:21:52;;;;;;;3.87;1.20;;;19.00;77.10;;;;;;5063497;28;20682;-76
2022/04/24 09:24:20;;;;;;;2.33;1.10;;;18.80;78.50;;;;;;5064790;28;20191;-76
2022/04/24 09:26:57;;;;;;;1.80;1.37;;;18.70;78.50;;;;;;5052512;28;20230;-75
2022/04/24 09:29:25;;;;;;;3.47;1.40;;;18.70;79.30;;;;;;5058088;28;20219;-76
2022/04/24 09:31:53;;;;;;;2.50;1.40;;;18.60;80.00;;;;;;5054582;28;20267;-74
2022/04/24 09:34:21;;;;;;;5.37;1.63;;;18.50;80.30;;;;;;5052509;28;20661;-74
2022/04/24 09:37:01;;;;;;;2.17;1.33;;;18.50;80.20;;;;;;5054576;28;20195;-74
2022/04/24 09:39:34;;;;;;;3.07;1.70;;;18.50;80.20;;;;;;5066988;28;20174;-74
2022/04/24 09:42:12;;;;;;;2.67;1.53;;;18.50;79.90;;;;;;5064318;28;20239;-74
2022/04/24 09:44:51;;;;;;;2.70;1.33;;;18.50;79.90;;;;;;5053293;28;20700;-74
2022/04/24 09:47:23;;;;;;;1.97;1.00;;;18.50;79.70;;;;;;5054458;28;20529;-74
2022/04/24 09:49:52;;;;;;;2.10;1.30;;;18.60;79.70;;;;;;5054851;28;20570;-75
2022/04/24 09:52:24;;;;;;;2.03;1.20;;;18.40;80.00;;;;;;5063155;28;20179;-74
2022/04/24 09:54:53;;;;;;;2.97;1.10;;;18.50;80.10;;;;;;5067163;28;20186;-75
2022/04/24 09:57:24;;;;;;;2.77;1.27;;;18.50;79.50;;;;;;5069213;28;20282;-75
2022/04/24 09:59:51;;;;;;;2.93;1.13;;;18.60;79.40;;;;;;5046004;28;20190;-75
2022/04/24 10:02:20;;;;;;;2.00;1.27;;;18.60;79.40;;;;;;5055863;28;20211;-75
2022/04/24 10:04:48;;;;;;;2.60;1.27;;;18.60;79.50;;;;;;5053379;28;20571;-75
2022/04/24 10:07:22;;;;;;;3.77;1.70;;;18.70;79.20;;;;;;5054539;28;20263;-75
2022/04/24 10:09:49;;;;;;;4.97;1.67;;;18.50;79.60;;;;;;5053861;28;20186;-75
2022/04/24 10:12:20;;;;;;;3.37;1.50;;;18.60;79.80;;;;;;5057076;28;20179;-75
2022/04/24 10:15:13;;;;;;;3.63;1.53;;;18.60;80.10;;;;;;5072441;28;20529;-75
2022/04/24 10:18:02;;;;;;;5.63;1.60;;;18.50;80.30;;;;;;5057093;28;20179;-74
2022/04/24 10:20:51;;;;;;;2.10;1.50;;;18.50;80.50;;;;;;5073495;28;20216;-74
2022/04/24 10:23:29;;;;;;;2.67;1.50;;;18.50;80.40;;;;;;5066557;28;20273;-76
2022/04/24 10:25:57;;;;;;;2.63;1.70;;;18.40;80.70;;;;;;5070631;28;20173;-75
2022/04/24 10:28:36;;;;;;;2.57;1.60;;;18.40;80.80;;;;;;5051271;28;20642;-74
2022/04/24 10:31:05;;;;;;;4.20;1.67;;;18.40;81.10;;;;;;5062571;28;20185;-75
2022/04/24 10:33:34;;;;;;;3.60;1.50;;;18.30;81.30;;;;;;5051634;28;20180;-75
2022/04/24 10:36:13;;;;;;;3.50;1.73;;;18.30;81.70;;;;;;5056422;28;20183;-75
2022/04/24 10:38:54;;;;;;;3.00;1.37;;;18.40;81.90;;;;;;5064404;28;20217;-77
2022/04/24 10:41:24;;;;;;;4.27;1.40;;;18.30;82.20;;;;;;5054229;28;20225;-81
2022/04/24 10:43:59;;;;;;;3.93;1.40;;;18.30;82.60;;;;;;5052803;28;20188;-75
2022/04/24 10:46:28;;;;;;;2.17;1.37;;;18.30;82.60;;;;;;5055877;28;20634;-77
2022/04/24 10:49:11;;;;;;;2.20;1.33;;;18.30;82.50;;;;;;5061535;28;20727;-76
2022/04/24 10:51:43;;;;;;;3.90;1.40;;;18.20;82.80;;;;;;5056237;28;20189;-75
2022/04/24 10:54:17;;;;;;;2.67;1.57;;;18.10;83.40;;;;;;5052313;28;20183;-75
2022/04/24 10:56:51;;;;;;;2.03;1.50;;;18.10;83.80;;;;;;5062966;28;20191;-75
2022/04/24 10:59:21;;;;;;;4.37;1.67;;;18.00;84.30;;;;;;5070360;28;20741;-75
2022/04/24 11:01:58;;;;;;;1.90;1.63;;;18.00;84.60;;;;;;5053427;28;20224;-76
2022/04/24 11:04:25;;;;;;;2.60;1.40;;;18.10;84.40;;;;;;5052090;28;20202;-75
2022/04/24 11:06:58;;;;;;;3.93;1.50;;;18.10;84.70;;;;;;5045464;28;20177;-76
2022/04/24 11:09:33;;;;;;;3.60;1.67;;;18.10;84.40;;;;;;5032936;28;20173;-75
2022/04/24 11:12:06;;;;;;;1.97;1.30;;;18.00;84.50;;;;;;5053586;28;20587;-75
2022/04/24 11:14:35;;;;;;;2.83;2.40;;;18.00;84.50;;;;;;5063246;28;20195;-73
2022/04/24 11:17:05;;;;;;;3.57;1.80;;;18.00;84.70;;;;;;5052558;28;20187;-75
2022/04/24 11:19:37;;;;;;;3.97;1.80;;;18.00;84.80;;;;;;5060374;28;20194;-76
2022/04/24 11:22:08;;;;;;;3.30;1.47;;;18.00;84.70;;;;;;5052446;28;20212;-75
2022/04/24 11:24:38;;;;;;;4.77;1.57;;;18.00;84.60;;;;;;5052731;28;20586;-75
2022/04/24 11:27:09;;;;;;;4.60;2.00;;;18.00;84.80;;;;;;5051684;28;20222;-74
2022/04/24 11:29:36;;;;;;;6.80;1.83;;;18.00;84.80;;;;;;5052893;28;20536;-74
2022/04/24 11:32:08;;;;;;;8.00;2.00;;;18.00;84.90;;;;;;5070354;28;20172;-75
2022/04/24 11:34:36;;;;;;;3.87;1.63;;;18.00;84.80;;;;;;5071172;28;20524;-75
2022/04/24 11:37:04;;;;;;;3.63;1.70;;;18.00;84.60;;;;;;5062052;28;20187;-74
2022/04/24 11:39:33;;;;;;;3.53;1.87;;;18.00;84.50;;;;;;5051491;28;20179;-74
2022/04/24 11:42:00;;;;;;;2.60;1.23;;;18.00;84.20;;;;;;5068739;28;20247;-74
2022/04/24 11:50:15;;;;;;;1.87;0.90;;;18.10;83.10;;;;;;5049526;28;20190;-74
2022/04/24 11:52:46;;;;;;;1.97;1.03;;;17.90;82.80;;;;;;5040164;28;20184;-75
2022/04/24 11:55:22;;;;;;;2.30;1.00;;;17.90;82.40;;;;;;5032503;28;20161;-78
2022/04/24 11:58:02;;;;;;;1.53;1.00;;;17.90;82.50;;;;;;5039412;28;20191;-76
2022/04/24 12:00:37;;;;;;;1.23;0.97;;;17.80;82.50;;;;;;5070813;28;20293;-74
2022/04/24 12:03:08;;;;;;;1.87;0.90;;;17.80;82.10;;;;;;5072336;28;20171;-74
2022/04/24 12:05:36;;;;;;;2.20;0.80;;;17.80;82.20;;;;;;5055834;28;20674;-74
2022/04/24 12:08:04;;;;;;;1.73;0.90;;;17.80;82.10;;;;;;5056406;28;20241;-75
2022/04/24 12:10:31;;;;;;;1.83;0.80;;;17.80;81.30;;;;;;5046585;28;20180;-74
2022/04/24 12:13:09;;;;;;;1.13;0.73;;;17.80;81.60;;;;;;5055913;28;20179;-75
2022/04/24 12:15:36;;;;;;;1.83;1.07;;;17.70;81.90;;;;;;5055844;28;20178;-76
2022/04/24 12:18:06;;;;;;;0.77;0.77;;;17.70;81.70;;;;;;5055686;28;20172;-76
2022/04/24 12:20:40;;;;;;;3.53;1.10;;;17.60;81.90;;;;;;5066885;28;20260;-74
2022/04/24 12:23:11;;;;;;;2.97;1.30;;;17.60;82.00;;;;;;5063707;28;20189;-74
2022/04/24 12:25:57;;;;;;;2.30;1.10;;;17.50;82.20;;;;;;5074002;28;20570;-74
2022/04/24 12:28:41;;;;;;;0.90;0.80;;;17.50;82.60;;;;;;5048151;28;20600;-74
2022/04/24 12:31:23;;;;;;;1.63;1.10;;;17.50;82.90;;;;;;5035428;28;20175;-75
2022/04/24 12:33:53;;;;;;;2.10;1.13;;;17.30;83.40;;;;;;5056322;28;20225;-75
2022/04/24 12:36:21;;;;;;;2.90;1.30;;;17.30;83.70;;;;;;5055663;28;20186;-75
2022/04/24 12:39:04;;;;;;;2.07;1.10;;;17.20;84.30;;;;;;5054577;28;20277;-74
2022/04/24 12:41:33;;;;;;;2.40;1.10;;;17.20;84.60;;;;;;5058399;28;20219;-74
2022/04/24 12:44:02;;;;;;;2.50;1.53;;;17.20;84.60;;;;;;5061535;28;20200;-75
2022/04/24 12:46:30;;;;;;;3.10;1.47;;;17.10;85.10;;;;;;5053776;28;20184;-75
2022/04/24 12:48:58;;;;;;;3.40;1.33;;;17.00;85.20;;;;;;5054679;28;20202;-74
2022/04/24 12:51:27;;;;;;;2.57;1.20;;;16.80;85.90;;;;;;5055145;28;20596;-74
2022/04/24 12:53:56;;;;;;;3.27;1.20;;;16.80;86.30;;;;;;5054466;28;20523;-74
2022/04/24 12:56:24;;;;;;;2.20;1.40;;;16.70;86.30;;;;;;5054397;28;20207;-74
2022/04/24 12:58:51;;;;;;;2.30;1.30;;;16.70;86.60;;;;;;5054875;28;20164;-74
2022/04/24 13:01:25;;;;;;;3.83;1.33;;;16.70;87.00;;;;;;5048159;28;20237;-74
2022/04/24 13:03:54;;;;;;;2.00;1.40;;;16.70;87.60;;;;;;5054842;28;20530;-74
2022/04/24 13:06:25;;;;;;;4.50;1.53;;;16.80;87.70;;;;;;5055247;28;20186;-74
2022/04/24 13:08:56;;;;;;;2.37;1.87;;;16.80;87.50;;;;;;5054910;28;20184;-75
2022/04/24 13:11:25;;;;;;;2.83;1.80;;;16.80;87.20;;;;;;5053352;28;20571;-74